Goddard, Iowa
Current Conditions -  °F | °C
As of 8:15 AM on Monday 26 Jan 2015 (Local Time) from KTNU Reporting Station
Broken Clouds Broken Clouds  
Wind Chill: 19°   Ceiling: 7500
Heat Index: 32°   Visibility: 10mi
Dew Point: 28°   Wind: 23mph
Humidity: 87%   Direction: 220°SW
Pressure: 29.81"   Gusts: 29mph
Location:  41.6475°N, 93.2926°W
Report Text: KTNU 261415Z AUTO 22020G25KT 10SM FEW043 SCT065 BKN075 M00/M02 A2981 RMK AO2
Loading
Personal Weather Stations






























Interactive Weather Map New forecast layout! Learn more

10-Day Weather Forecast

Advertisements
Track Severe Weather on mobile